Time;durP1;ratioP1;P1;durP2;ratioP2;P2;SDS_P1;SDS_P2;PMS_P1;PMS_P2;Temp;Humidity;BMP_temperature;BMP_pressure;BME280_temperature;BME280_humidity;BME280_pressure;Samples;Min_cycle;Max_cycle;Signal;HPM_P1;HPM_P2
2021/03/16 00:09:12;;;;;;;7.43;1.95;;;20.90;43.60;;;;;;20821157;28;20033;-20
2021/03/16 00:19:12;;;;;;;6.20;1.60;;;20.90;43.50;;;;;;20833309;28;20025;-22
2021/03/16 00:29:13;;;;;;;3.38;1.33;;;21.00;43.40;;;;;;20830035;28;20095;-23
2021/03/16 00:39:13;;;;;;;6.47;1.40;;;21.10;43.10;;;;;;20819107;28;20029;-27
2021/03/16 00:49:14;;;;;;;4.77;1.80;;;21.10;43.10;;;;;;20825891;28;20571;-24
2021/03/16 00:59:14;;;;;;;5.63;1.92;;;21.00;42.80;;;;;;20828637;28;20036;-25
2021/03/16 01:09:15;;;;;;;4.45;1.20;;;21.10;42.40;;;;;;20827326;28;20033;-24
2021/03/16 01:19:15;;;;;;;3.10;0.93;;;21.10;42.30;;;;;;20826214;28;20052;-26
2021/03/16 01:29:16;;;;;;;4.72;1.30;;;21.10;42.00;;;;;;20763843;23;20076;-23
2021/03/16 01:39:16;;;;;;;6.13;1.70;;;21.20;41.80;;;;;;20742873;28;20672;-23
2021/03/16 01:49:17;;;;;;;6.68;1.27;;;21.10;41.70;;;;;;20724776;28;20076;-20
2021/03/16 01:59:18;;;;;;;5.68;1.48;;;21.20;41.50;;;;;;20720803;28;20034;-22
2021/03/16 02:09:44;;;;;;;10.67;1.57;;;21.20;41.50;;;;;;20722602;28;20037;-20
2021/03/16 02:20:06;;;;;;;4.53;1.13;;;21.20;41.30;;;;;;20736616;28;20102;-22
2021/03/16 02:30:09;;;;;;;6.68;1.20;;;21.20;41.30;;;;;;20734593;28;20061;-22
2021/03/16 02:40:12;;;;;;;7.97;1.70;;;21.20;41.30;;;;;;20701840;28;20050;-21
2021/03/16 02:50:14;;;;;;;4.93;1.85;;;21.20;41.00;;;;;;20734176;28;20033;-23
2021/03/16 03:00:16;;;;;;;6.10;1.52;;;21.30;40.90;;;;;;20710342;28;20571;-22
2021/03/16 03:10:17;;;;;;;5.38;1.33;;;21.30;40.70;;;;;;20719797;28;20383;-23
2021/03/16 03:20:18;;;;;;;7.43;1.73;;;21.30;40.30;;;;;;20738337;28;20026;-22
2021/03/16 03:30:20;;;;;;;4.28;1.50;;;21.50;40.50;;;;;;20752866;28;20556;-21
2021/03/16 03:40:23;;;;;;;3.95;1.17;;;21.30;40.10;;;;;;20754758;28;20026;-22
2021/03/16 03:50:24;;;;;;;6.45;1.52;;;21.30;40.00;;;;;;20752591;28;20042;-20
2021/03/16 04:00:26;;;;;;;7.22;1.10;;;21.30;39.90;;;;;;20752069;28;20057;-23
2021/03/16 04:10:27;;;;;;;2.95;1.10;;;21.40;39.70;;;;;;20757060;28;20048;-21
2021/03/16 04:20:28;;;;;;;5.30;1.00;;;21.30;39.80;;;;;;20759717;28;20497;-23
2021/03/16 04:30:28;;;;;;;4.75;1.65;;;21.30;39.50;;;;;;20757094;28;20030;-21
2021/03/16 04:40:29;;;;;;;6.60;1.40;;;21.30;39.40;;;;;;20751573;28;20030;-20
2021/03/16 04:50:29;;;;;;;4.22;1.48;;;21.30;39.30;;;;;;20755895;28;20072;-20
2021/03/16 05:00:30;;;;;;;3.40;1.20;;;21.40;39.10;;;;;;20750223;28;20072;-20
2021/03/16 05:10:30;;;;;;;7.97;2.22;;;21.20;38.90;;;;;;20749769;28;20523;-20
2021/03/16 05:20:31;;;;;;;6.75;1.40;;;21.30;38.80;;;;;;20746748;28;20148;-22
2021/03/16 05:30:31;;;;;;;7.65;1.30;;;21.40;38.80;;;;;;20745377;28;20121;-21
2021/03/16 05:40:33;;;;;;;6.65;1.65;;;21.40;38.70;;;;;;20744394;28;20061;-23
2021/03/16 05:50:34;;;;;;;6.00;2.03;;;21.50;38.50;;;;;;20746554;28;20054;-23
2021/03/16 06:00:34;;;;;;;5.97;1.27;;;21.40;38.50;;;;;;20724134;28;20068;-23
2021/03/16 06:10:35;;;;;;;5.97;1.67;;;21.50;38.30;;;;;;20723348;28;20076;-21
2021/03/16 06:20:36;;;;;;;9.93;2.13;;;21.50;38.20;;;;;;20717553;28;20034;-23
2021/03/16 06:30:38;;;;;;;21.58;2.72;;;21.40;38.40;;;;;;20712249;28;20157;-22
2021/03/16 06:40:39;;;;;;;18.88;3.05;;;21.50;38.60;;;;;;20711436;28;20109;-23
2021/03/16 06:50:39;;;;;;;22.30;6.45;;;21.60;38.70;;;;;;20717275;28;20068;-21
2021/03/16 07:00:40;;;;;;;30.75;8.55;;;21.60;38.90;;;;;;20720307;28;20049;-21
2021/03/16 07:10:41;;;;;;;27.55;8.65;;;21.60;39.10;;;;;;20717390;28;20030;-22
2021/03/16 07:20:43;;;;;;;35.42;9.27;;;21.60;39.50;;;;;;20722486;28;20057;-22
2021/03/16 07:30:44;;;;;;;27.42;8.05;;;21.60;40.70;;;;;;20748181;23;20046;-25
2021/03/16 07:40:45;;;;;;;26.40;9.13;;;21.50;40.20;;;;;;20586215;28;20026;-24
2021/03/16 07:50:46;;;;;;;20.80;7.32;;;21.50;40.90;;;;;;20652947;28;20038;-24
2021/03/16 08:00:46;;;;;;;22.13;7.10;;;21.30;41.20;;;;;;20624561;28;20070;-25
2021/03/16 08:10:47;;;;;;;21.77;6.97;;;21.40;41.30;;;;;;20674894;28;20045;-25
2021/03/16 08:20:48;;;;;;;31.38;9.40;;;21.30;41.70;;;;;;20693573;28;20513;-24
2021/03/16 08:30:49;;;;;;;27.98;6.55;;;21.20;42.20;;;;;;20704956;28;20376;-25
2021/03/16 08:41:02;;;;;;;25.08;6.03;;;21.10;42.70;;;;;;20708880;28;20030;-25
2021/03/16 08:51:04;;;;;;;27.83;6.28;;;20.90;42.70;;;;;;20645800;28;20038;-23
2021/03/16 09:01:04;;;;;;;16.65;6.18;;;20.70;42.70;;;;;;20651185;28;20033;-25
2021/03/16 09:11:05;;;;;;;25.33;7.15;;;20.60;42.70;;;;;;20629278;28;20483;-20
2021/03/16 09:21:06;;;;;;;22.05;6.43;;;20.50;43.00;;;;;;20665229;28;20038;-22
2021/03/16 09:31:06;;;;;;;22.90;6.28;;;20.30;43.00;;;;;;20669414;28;20107;-23
2021/03/16 09:41:09;;;;;;;15.90;5.63;;;20.30;42.90;;;;;;20667910;28;20023;-21
2021/03/16 09:51:12;;;;;;;21.35;5.03;;;20.10;43.00;;;;;;20673847;28;20077;-25
2021/03/16 10:01:12;;;;;;;14.73;4.40;;;19.90;43.00;;;;;;20692262;28;20053;-23
2021/03/16 10:11:13;;;;;;;14.73;5.72;;;20.00;43.20;;;;;;20695146;28;20030;-22
2021/03/16 10:21:14;;;;;;;11.50;3.85;;;19.90;43.10;;;;;;20696765;28;20026;-22
2021/03/16 10:31:18;;;;;;;13.90;3.72;;;19.90;43.10;;;;;;20675323;28;20053;-20
2021/03/16 10:41:21;;;;;;;13.10;4.40;;;19.90;43.20;;;;;;20658492;28;20037;-21
2021/03/16 10:51:22;;;;;;;26.50;5.55;;;19.90;43.20;;;;;;20658639;28;20050;-19
2021/03/16 11:01:23;;;;;;;29.50;7.25;;;20.00;43.70;;;;;;20658087;28;20037;-19
2021/03/16 11:11:23;;;;;;;21.42;4.80;;;19.90;44.10;;;;;;20661660;28;20030;-20
2021/03/16 11:21:25;;;;;;;24.55;6.40;;;19.90;44.00;;;;;;20656322;28;20062;-22
2021/03/16 11:31:25;;;;;;;21.10;5.30;;;20.00;44.20;;;;;;20654341;28;20103;-21
2021/03/16 11:41:26;;;;;;;12.90;3.80;;;20.00;44.00;;;;;;20666706;28;20077;-20
2021/03/16 11:51:26;;;;;;;15.30;4.88;;;19.90;44.20;;;;;;20688293;28;20128;-21
2021/03/16 12:01:27;;;;;;;18.95;3.75;;;20.00;44.30;;;;;;20692583;28;20104;-25
2021/03/16 12:11:27;;;;;;;12.52;2.63;;;20.40;43.80;;;;;;20667552;28;20030;-22
2021/03/16 12:21:28;;;;;;;15.70;2.67;;;21.20;42.70;;;;;;20682011;28;20061;-24
2021/03/16 12:31:28;;;;;;;10.65;2.63;;;22.00;41.20;;;;;;20647494;28;21034;-22
2021/03/16 12:41:29;;;;;;;11.15;2.65;;;22.70;39.90;;;;;;20663608;28;20031;-23
2021/03/16 12:51:30;;;;;;;7.47;2.23;;;23.40;38.80;;;;;;20661596;28;20035;-26
2021/03/16 13:01:30;;;;;;;7.63;2.13;;;23.90;37.90;;;;;;20673774;28;20545;-20
2021/03/16 13:11:31;;;;;;;5.85;1.63;;;24.20;37.30;;;;;;20679592;28;20512;-23
2021/03/16 13:21:32;;;;;;;6.80;1.45;;;24.10;37.60;;;;;;20682405;28;20030;-24
2021/03/16 13:31:34;;;;;;;7.43;2.30;;;23.70;38.10;;;;;;20742032;23;20049;-22
2021/03/16 13:41:35;;;;;;;4.32;1.13;;;23.40;38.70;;;;;;20802575;28;20473;-20
2021/03/16 13:51:36;;;;;;;4.93;1.23;;;23.20;39.00;;;;;;20811576;28;20045;-20
2021/03/16 14:01:37;;;;;;;7.18;1.35;;;23.30;39.10;;;;;;20819492;28;20026;-22
2021/03/16 14:11:37;;;;;;;4.55;1.40;;;23.20;39.10;;;;;;20814397;28;20403;-20
2021/03/16 14:21:38;;;;;;;13.25;2.20;;;23.40;38.90;;;;;;20739529;28;20498;-23
2021/03/16 14:31:38;;;;;;;11.55;1.50;;;23.40;39.00;;;;;;20740991;28;20068;-22
2021/03/16 14:41:39;;;;;;;10.45;1.52;;;23.50;38.60;;;;;;20743226;28;20042;-23
2021/03/16 14:51:39;;;;;;;9.80;3.03;;;23.40;39.20;;;;;;20769062;28;20056;-20
2021/03/16 15:01:40;;;;;;;9.38;1.70;;;23.30;38.70;;;;;;20779806;28;20103;-21
2021/03/16 15:11:41;;;;;;;6.40;1.30;;;23.30;38.80;;;;;;20776465;28;20500;-19
2021/03/16 15:21:41;;;;;;;12.60;2.05;;;23.20;38.60;;;;;;20790186;28;20476;-20
2021/03/16 15:31:43;;;;;;;7.82;1.10;;;23.20;38.70;;;;;;20800357;28;20030;-21
2021/03/16 15:41:43;;;;;;;19.33;2.13;;;23.10;38.80;;;;;;20777075;28;20052;-23
2021/03/16 15:51:44;;;;;;;11.27;1.55;;;23.40;38.60;;;;;;20796682;28;20044;-22
2021/03/16 16:01:45;;;;;;;12.38;1.80;;;23.40;38.60;;;;;;20790779;28;20158;-22
2021/03/16 16:11:45;;;;;;;16.17;1.97;;;23.30;40.00;;;;;;20797328;28;20203;-22
2021/03/16 16:21:46;;;;;;;6.38;1.27;;;22.90;40.50;;;;;;20756117;28;20425;-22
2021/03/16 16:31:46;;;;;;;8.23;1.98;;;22.50;38.90;;;;;;20812722;28;20132;-22
2021/03/16 16:41:47;;;;;;;4.10;1.23;;;22.30;39.40;;;;;;20801184;28;20044;-21
2021/03/16 16:51:47;;;;;;;10.43;1.52;;;22.10;37.50;;;;;;20780117;28;20034;-22
2021/03/16 17:01:48;;;;;;;6.40;2.28;;;22.10;35.90;;;;;;20785083;28;20041;-21
2021/03/16 17:11:49;;;;;;;6.80;1.48;;;22.00;37.60;;;;;;20809539;28;20048;-20
2021/03/16 17:21:49;;;;;;;8.80;1.83;;;22.00;38.20;;;;;;20761738;28;20042;-22
2021/03/16 17:31:50;;;;;;;5.18;1.50;;;21.80;36.80;;;;;;20796256;28;20065;-21
2021/03/16 17:41:50;;;;;;;4.07;1.58;;;21.80;35.30;;;;;;20778026;28;20055;-21
2021/03/16 17:51:51;;;;;;;95.70;41.60;;;22.10;34.00;;;;;;20764345;28;20037;-20
2021/03/16 18:01:51;;;;;;;174.32;79.13;;;22.60;34.90;;;;;;20771294;28;20429;-22
2021/03/16 18:11:52;;;;;;;126.30;53.15;;;23.20;35.40;;;;;;20785024;28;20037;-22
2021/03/16 18:21:53;;;;;;;79.90;41.08;;;23.60;35.50;;;;;;20774000;28;20092;-22
2021/03/16 18:31:54;;;;;;;78.78;33.13;;;23.80;37.50;;;;;;20782181;28;20045;-22
2021/03/16 18:41:54;;;;;;;69.27;29.10;;;23.80;38.50;;;;;;20784461;28;20643;-20
2021/03/16 18:51:55;;;;;;;52.58;22.60;;;23.60;38.90;;;;;;20787384;28;20085;-22
2021/03/16 19:01:56;;;;;;;47.22;21.10;;;23.60;39.30;;;;;;20776540;28;20540;-22
2021/03/16 19:11:56;;;;;;;39.80;18.40;;;23.70;39.80;;;;;;20783233;28;20033;-22
2021/03/16 19:21:57;;;;;;;33.95;15.48;;;23.20;39.80;;;;;;20765786;28;20502;-21
2021/03/16 19:31:57;;;;;;;32.55;14.88;;;23.10;40.10;;;;;;20791699;23;20042;-23
2021/03/16 19:41:58;;;;;;;34.17;14.93;;;22.90;40.30;;;;;;20762194;28;20125;-22
2021/03/16 19:51:58;;;;;;;29.83;12.37;;;23.10;40.20;;;;;;20748324;28;20095;-22
2021/03/16 20:01:59;;;;;;;27.40;11.32;;;23.10;40.10;;;;;;20751429;28;20457;-23
2021/03/16 20:11:59;;;;;;;23.17;10.13;;;23.20;40.00;;;;;;20765708;28;20050;-25
2021/03/16 20:22:00;;;;;;;21.23;9.37;;;23.30;39.90;;;;;;20753319;28;20025;-24
2021/03/16 20:32:01;;;;;;;18.10;9.17;;;23.40;39.90;;;;;;20748706;28;20498;-23
2021/03/16 20:42:01;;;;;;;17.77;8.45;;;23.30;39.90;;;;;;20760974;28;20026;-24
2021/03/16 20:52:02;;;;;;;19.35;7.38;;;23.40;39.80;;;;;;20742286;28;20089;-20
2021/03/16 21:02:03;;;;;;;12.10;7.18;;;23.30;40.00;;;;;;20755040;28;20037;-24
2021/03/16 21:12:04;;;;;;;15.53;6.63;;;23.50;40.10;;;;;;20769993;28;20034;-23
2021/03/16 21:22:04;;;;;;;13.57;6.43;;;23.20;40.40;;;;;;20762514;28;20468;-25
2021/03/16 21:32:05;;;;;;;15.82;6.47;;;23.00;40.90;;;;;;20765292;28;20030;-23
2021/03/16 21:42:07;;;;;;;18.50;6.43;;;22.80;41.10;;;;;;20757551;28;20081;-24
2021/03/16 21:52:07;;;;;;;15.32;7.05;;;22.50;42.00;;;;;;20706115;28;20038;-24
2021/03/16 22:02:08;;;;;;;15.87;6.03;;;22.30;42.30;;;;;;20751471;28;20045;-21
2021/03/16 22:12:09;;;;;;;13.93;5.32;;;22.20;42.60;;;;;;20759308;28;20563;-22
2021/03/16 22:22:09;;;;;;;14.02;5.55;;;22.10;43.10;;;;;;20776820;28;20485;-22
2021/03/16 22:32:10;;;;;;;14.13;4.78;;;21.90;43.40;;;;;;20770719;28;20068;-23
2021/03/16 22:42:10;;;;;;;11.95;4.82;;;21.70;43.30;;;;;;20788074;28;20060;-20
2021/03/16 22:52:11;;;;;;;14.87;5.00;;;21.60;43.50;;;;;;20792841;28;20046;-24
2021/03/16 23:02:11;;;;;;;7.97;4.10;;;21.40;44.50;;;;;;20746160;28;20029;-21
2021/03/16 23:12:12;;;;;;;14.05;4.68;;;21.30;44.80;;;;;;20738434;28;20436;-21
2021/03/16 23:22:13;;;;;;;10.37;4.33;;;21.20;45.60;;;;;;20732064;28;20061;-20
2021/03/16 23:32:15;;;;;;;17.05;5.72;;;21.20;46.70;;;;;;20739494;28;20418;-20
2021/03/16 23:42:17;;;;;;;20.40;4.75;;;21.20;47.20;;;;;;20739392;28;20513;-20
2021/03/16 23:52:18;;;;;;;16.30;4.43;;;21.00;46.80;;;;;;20743702;28;20603;-21
